• Join FlightAware (Why Join?)
  • Login
  • US Flag 
05:10AM EDT


 

Airport Tracker/Info


-or-


 

Live Flight TrackerFlight Track Log ✈ UAL4553 ✈ 22-Apr-2013 ✈ KGSP - KIAH

Flight Track Log - Related Links

Times and Time Zones

All times are in EDT time to prevent confusion due to time zone crossing. See the UAL4553 flight status page for this flight to view local times or setup timezone preferences in your user account.

Time Position Orientation Groundspeed Altitude Reporting Facility
EDT Latitude Longitude Course Direction KTS MPH feet Rate Location/Type
01:52PM 34.9481 -82.2572 239° Southwest 265 305 4,700  Level Atlanta Center
01:53PM 34.8842 -82.3194 219° Southwest 280 322 7,700 2,640 Climbing Atlanta Center
01:54PM 34.6125 -82.5354 224° Southwest  Level FlightAware Approximate
01:54PM 34.8225 -82.3814 220° Southwest 292 336 10,000  Level Atlanta Center
01:55PM 34.5432 -82.6150 223° Southwest  Level FlightAware Approximate
01:55PM 34.7544 -82.4511 220° Southwest 310 357 11,400  Level Atlanta Center
01:56PM 34.4750 -82.6958 231° Southwest  Level FlightAware Approximate
01:56PM 34.6844 -82.5231 220° Southwest 327 376 13,600  Level Atlanta Center
01:57PM 34.4153 -82.7860 239° Southwest  Level FlightAware Approximate
01:57PM 34.6244 -82.5797 218° Southwest 332 382 15,000  Level Atlanta Center
01:58PM 34.5461 -82.6619 221° Southwest 341 392 16,700 1,440 Climbing Atlanta Center
01:59PM 34.4697 -82.7361 219° Southwest 357 411 17,900 1,320 Climbing Atlanta Center
02:00PM 34.4019 -82.8253 227° Southwest 357 411 19,400 1,380 Climbing Atlanta Center
02:01PM 34.3528 -82.9267 240° Southwest 359 413 20,700 1,200 Climbing Atlanta Center
02:02PM 34.3056 -83.0331 242° Southwest 364 419 21,800 1,200 Climbing Atlanta Center
02:03PM 34.2522 -83.1442 240° Southwest 369 425 23,200 1,440 Climbing Atlanta Center
02:04PM 34.1967 -83.2603 240° Southwest 374 430 24,700 1,500 Climbing Atlanta Center
02:05PM 34.1472 -83.3636 240° Southwest 374 430 26,300 1,560 Climbing Atlanta Center
02:06PM 34.0997 -83.4669 241° Southwest 365 420 27,900 1,500 Climbing Atlanta Center
02:07PM 34.0500 -83.5650 239° Southwest 347 399 29,400 1,260 Climbing Atlanta Center
02:08PM 34.0044 -83.6631 241° Southwest 347 399 30,500 1,080 Climbing Atlanta Center
02:09PM 33.9567 -83.7608 240° Southwest 347 399 31,600 960 Climbing Atlanta Center
02:10PM 33.9089 -83.8611 240° Southwest 347 399 32,500 900 Climbing Atlanta Center
02:11PM 33.8506 -83.9564 234° Southwest 347 399 33,500 900 Climbing Atlanta Center
02:12PM 33.7942 -84.0389 231° Southwest 357 411 34,300 840 Climbing Atlanta Center
02:13PM 33.7336 -84.1311 232° Southwest 362 417 35,200 840 Climbing Atlanta Center
02:14PM 33.6689 -84.2361 233° Southwest 362 417 36,000 360 Climbing Atlanta Center
02:15PM 33.6019 -84.3281 229° Southwest 362 417 36,000  Level Atlanta Center
02:16PM 33.5347 -84.4275 231° Southwest 375 432 36,000  Level Atlanta Center
02:17PM 33.4656 -84.5294 231° Southwest 393 452 36,000  Level Atlanta Center
02:18PM 33.3942 -84.6336 231° Southwest 403 464 36,000  Level Atlanta Center
02:19PM 33.3247 -84.7375 231° Southwest 403 464 36,000  Level Atlanta Center
02:20PM 33.2531 -84.8436 231° Southwest 408 470 36,000  Level Atlanta Center
02:21PM 33.1794 -84.9497 230° Southwest 408 470 36,000  Level Atlanta Center
02:22PM 33.1075 -85.0556 231° Southwest 415 478 36,000  Level Atlanta Center
02:23PM 33.0442 -85.1467 230° Southwest 415 478 36,000  Level Atlanta Center
02:24PM 32.9742 -85.2472 230° Southwest 410 472 36,000  Level Atlanta Center
02:25PM 32.8961 -85.3450 226° Southwest 410 472 36,000  Level Atlanta Center
02:26PM 32.8258 -85.4553 233° Southwest 410 472 36,000  Level Atlanta Center
02:27PM 32.7558 -85.5578 231° Southwest 415 478 36,000  Level Atlanta Center
02:28PM 32.6814 -85.6653 231° Southwest 415 478 36,000  Level Atlanta Center
02:29PM 32.6092 -85.7697 231° Southwest 415 478 36,000  Level Atlanta Center
02:30PM 32.5344 -85.8769 230° Southwest 415 478 36,000  Level Atlanta Center
02:31PM 32.4514 -85.9883 229° Southwest 433 498 36,000  Level Atlanta Center
02:32PM 32.3808 -86.0925 231° Southwest 433 498 36,000  Level Atlanta Center
02:33PM 32.3058 -86.1989 230° Southwest 426 490 36,000  Level Atlanta Center
02:34PM 32.2244 -86.3122 230° Southwest 421 484 36,000  Level Atlanta Center
02:35PM 32.1642 -86.4114 234° Southwest 428 493 36,000  Level Atlanta Center
02:36PM 32.0892 -86.5197 231° Southwest 422 486 36,000  Level Atlanta Center
02:37PM 32.0097 -86.6253 228° Southwest 422 486 36,000  Level Atlanta Center
02:38PM 31.9239 -86.7378 228° Southwest 422 486 36,000  Level Atlanta Center
02:39PM 31.8464 -86.8431 229° Southwest 427 491 36,000  Level Atlanta Center
02:40PM 31.7708 -86.9483 230° Southwest 427 491 36,000  Level Atlanta Center
02:42PM 31.6417 -87.1219 229° Southwest 425 489 36,000  Level Houston Center
02:43PM 31.5650 -87.2286 230° Southwest 427 491 36,000  Level Houston Center
02:44PM 31.4878 -87.3339 229° Southwest 426 490 36,000  Level Houston Center
02:45PM 31.3947 -87.4586 229° Southwest 425 489 36,000  Level Houston Center
02:46PM 31.3181 -87.5647 230° Southwest 426 490 36,000  Level Houston Center
02:47PM 31.2394 -87.6697 229° Southwest 428 493 36,000  Level Houston Center
02:48PM 31.1589 -87.7764 229° Southwest 436 502 36,000  Level Houston Center
02:49PM 31.0822 -87.8817 230° Southwest 431 496 36,000  Level Houston Center
02:50PM 31.0042 -87.9881 229° Southwest 433 498 36,000  Level Houston Center
02:51PM 30.9086 -88.1136 228° Southwest 433 498 36,000  Level Houston Center
02:52PM 30.8297 -88.2189 229° Southwest 432 497 36,000  Level Houston Center
02:53PM 30.7503 -88.3231 228° Southwest 430 495 36,000  Level Houston Center
02:54PM 30.6925 -88.4500 242° Southwest 416 479 36,000  Level Houston Center
02:55PM 30.6514 -88.5739 249° West 412 474 36,000  Level Houston Center
02:56PM 30.6086 -88.6969 248° West 410 472 36,000  Level Houston Center
02:57PM 30.5667 -88.8186 248° West 408 470 36,000  Level Houston Center
02:58PM 30.5214 -88.9536 249° West 405 466 36,000  Level Houston Center
02:59PM 30.4800 -89.0725 248° West 401 461 36,000  Level Houston Center
03:00PM 30.4392 -89.1925 248° West 400 460 36,000  Level Houston Center
03:01PM 30.3964 -89.3128 248° West 404 465 36,000  Level Houston Center
03:02PM 30.3458 -89.4556 248° West 399 459 36,000  Level Houston Center
03:03PM 30.3042 -89.5747 248° West 398 458 36,000  Level Houston Center
03:04PM 30.2603 -89.6953 247° West 399 459 36,000  Level Houston Center
03:05PM 30.2167 -89.8183 248° West 402 463 36,000  Level Houston Center
03:06PM 30.1756 -89.9381 248° West 397 457 36,000  Level Houston Center
03:07PM 30.1339 -90.0547 248° West 391 450 36,000  Level Houston Center
03:08PM 30.0919 -90.1717 248° West 392 451 36,000  Level Houston Center
03:09PM 30.0508 -90.2894 248° West 394 453 36,000  Level Houston Center
03:11PM 29.9994 -90.4281 247° West 393 452 36,000  Level Houston Center
03:12PM 29.9578 -90.5450 248° West 393 452 36,000  Level Houston Center
03:13PM 29.9153 -90.6603 247° West 393 452 36,000  Level Houston Center
03:14PM 29.8733 -90.7767 247° West 393 452 36,000  Level Houston Center
03:15PM 29.8319 -90.8925 248° West 393 452 36,000  Level Houston Center
03:16PM 29.7889 -91.0086 247° West 395 455 36,000  Level Houston Center
03:17PM 29.7375 -91.1475 247° West 393 452 36,000  Level Houston Center
03:18PM 29.6950 -91.2636 247° West 394 453 36,000  Level Houston Center
03:19PM 29.6656 -91.3833 254° West 392 451 36,000  Level Houston Center
03:20PM 29.6439 -91.5017 258° West 381 438 36,000  Level Houston Center
03:21PM 29.6208 -91.6211 258° West 383 441 36,000  Level Houston Center
03:22PM 29.5958 -91.7453 257° West 383 441 36,000  Level Houston Center
03:23PM 29.5728 -91.8639 257° West 382 440 36,000  Level Houston Center
03:24PM 29.5456 -92.0039 257° West 377 434 36,000  Level Houston Center
03:25PM 29.5228 -92.1228 258° West 380 437 36,000  Level Houston Center
03:26PM 29.5003 -92.2392 258° West 374 430 36,000  Level Houston Center
03:27PM 29.4764 -92.3578 257° West 379 436 36,000  Level Houston Center
03:28PM 29.4586 -92.4756 260° West 375 432 36,000  Level Houston Center
03:29PM 29.4633 -92.5936 273° West 371 427 36,000  Level Houston Center
03:30PM 29.4700 -92.7347 273° West 370 426 36,000 -180 Level Houston Center
03:31PM 29.4744 -92.8519 273° West 368 423 35,700 -540 Descending Houston Center
03:32PM 29.4806 -92.9683 273° West 366 421 35,000 -1,020 Descending Houston Center
03:33PM 29.4847 -93.0836 272° West 362 417 33,600 -1,680 Descending Houston Center
03:34PM 29.4900 -93.2075 273° West 386 444 31,600 -2,040 Descending Houston Center
03:35PM 29.4956 -93.3378 273° West 406 467 29,500 -2,340 Descending Houston Center
03:36PM 29.5019 -93.4936 273° West 405 466 26,800 -2,460 Descending Houston Center
03:37PM 29.5069 -93.6278 272° West 417 480 24,500 -2,280 Descending Houston Center
03:38PM 29.5119 -93.7600 273° West 415 478 22,200 -2,220 Descending Houston Center
03:40PM 29.5175 -93.8881 273° West 407 468 20,000 -2,040 Descending Houston Center
03:41PM 29.5217 -94.0097 272° West 390 449 18,000 -2,100 Descending Houston Center
03:41PM 29.5250 -94.1058 272° West 368 423 16,400 -1,920 Descending Houston Center
03:42PM 29.5256 -94.1253 272° West 373 429 16,000 -1,860 Descending Houston Center
03:43PM 29.5292 -94.2372 272° West 352 405 13,900 -1,980 Descending Houston Center
03:43PM 29.5308 -94.2878 272° West 311 358 13,300 -900 Descending Houston Center
03:44PM 29.5364 -94.3536 276° West 313 360 13,000 -360 Descending Houston Center
03:45PM 29.5753 -94.4425 297° West 314 361 12,700 -660 Descending Houston Center
03:46PM 29.6139 -94.5311 297° West 312 359 11,700 -1,020 Descending Houston Center
03:47PM 29.6631 -94.6508 295° West 312 359 10,400 -1,020 Descending Houston Center
03:48PM 29.6886 -94.7050 299° West 306 352 9,700 -1,020 Descending Houston Center
03:48PM 29.7042 -94.7489 292° West 277 319 9,200 -1,200 Descending Houston Center
03:49PM 29.7275 -94.7983 299° West 278 320 8,500 -1,020 Descending Houston Center
03:50PM 29.7692 -94.8997 295° West 271 312 7,300 -960 Descending Houston Center
03:51PM 29.7931 -94.9550 296° West 276 318 6,600 -1,020 Descending Houston Center
03:51PM 29.8044 -94.9844 294° West 276 318 6,200 -600 Descending Houston Center
03:52PM 29.8267 -95.0342 297° West 278 320 6,000 -120 Descending Houston Center
03:53PM 29.8594 -95.1128 296° West 277 319 6,000  Level Houston Center
03:54PM 29.8978 -95.2186 293° West 278 320 6,000  Level Houston Center
03:55PM 29.9003 -95.2958 272° West 276 318 6,000  Level Houston Center
03:56PM 29.9006 -95.3822 270° West 274 315 6,000 -120 Level Houston Center
03:57PM 29.9008 -95.4686 270° West 272 313 5,800 -600 Descending Houston Center
03:58PM 29.9008 -95.5519 270° West 264 304 4,800 -1,200 Descending Houston Center
03:59PM 29.9308 -95.6200 297° West 237 273 3,400 -900 Descending Houston Center
04:00PM 29.9639 -95.5531 60° Northeast 223 257 3,000 -420 Descending Houston Center
04:01PM 29.9836 -95.4906 70° East 229 264 2,600 -720 Descending Houston Center
04:02PM 29.9931 -95.4253 81° East 217 250 1,600 -1,020 Descending Houston Center
04:03PM 29.9942 -95.3761 88° East 176 203 500 -1,080 Descending Houston Center